KRMG/RMG METAR and TAF weather

Enter ICAO airport designator
Station Type Date Time Source
KRMG METAR 2019/04/18 09:53 UTC NOAA

KRMG 180953Z AUTO 00000KT 10SM CLR 13/11 A2992 RMK AO2 SLP123 T01330111


Station Type Date Time Source
KRMG Decoded METAR 2019/04/18 09:53 UTC NOAA

ROME R. B. RUSSELL AIRPORT, GA, United States (KRMG) 34-21N 085-10W 193M
Apr 18, 2019 - 05:53 AM EDT / 2019.04.18 0953 UTC
Wind: Calm:0
Visibility: 10 mile(s):0
Sky conditions: clear
Temperature: 55.9 F (13.3 C)
Dew Point: 52.0 F (11.1 C)
Relative Humidity: 86%
Pressure (altimeter): 29.92 in. Hg (1013 hPa)
ob: KRMG 180953Z AUTO 00000KT 10SM CLR 13/11 A2992 RMK AO2 SLP123 T01330111
cycle: 10

Station Type Date Time Source
KRMG TAF UTC NOAA

Error!

Example: see airport list